createdAt,value
2022-08-24T00:00:50.758Z,0.30
2022-08-24T00:05:53.804Z,0.60
2022-08-24T00:10:55.673Z,0.70
2022-08-24T00:15:58.096Z,0.95
2022-08-24T00:21:02.386Z,0.60
2022-08-24T00:26:05.653Z,0.60
2022-08-24T00:31:08.117Z,0.50
2022-08-24T00:36:10.209Z,0.68
2022-08-24T00:41:14.944Z,0.90
2022-08-24T00:46:23.566Z,0.50
2022-08-24T00:51:36.133Z,0.50
2022-08-24T00:56:47.220Z,0.47
2022-08-24T01:01:51.461Z,0.40
2022-08-24T01:06:53.475Z,0.70
2022-08-24T01:11:56.935Z,0.60
2022-08-24T01:17:17.436Z,0.60
2022-08-24T01:22:46.731Z,0.40
2022-08-24T01:27:50.590Z,0.60
2022-08-24T01:33:01.101Z,0.60
2022-08-24T01:38:07.840Z,0.88
2022-08-24T01:43:11.304Z,0.77
2022-08-24T01:48:15.545Z,0.75
2022-08-24T01:53:26.378Z,0.88
2022-08-24T01:58:28.330Z,0.98
2022-08-24T02:03:30.153Z,0.60
2022-08-24T02:08:34.571Z,0.60
2022-08-24T02:13:38.703Z,0.70
2022-08-24T02:18:41.576Z,0.60
2022-08-24T02:23:44.333Z,0.82
2022-08-24T02:28:46.154Z,0.47
2022-08-24T02:33:48.015Z,0.60
2022-08-24T02:38:50.216Z,0.73
2022-08-24T02:43:53.699Z,0.77
2022-08-24T02:48:57.632Z,0.70
2022-08-24T02:54:14.531Z,0.90
2022-08-24T02:59:17.469Z,0.52
2022-08-24T03:04:20.865Z,0.60
2022-08-24T03:09:23.553Z,0.63
2022-08-24T03:14:25.853Z,0.55
2022-08-24T03:19:27.829Z,0.68
2022-08-24T03:24:29.896Z,0.40
2022-08-24T03:29:33.776Z,0.50
2022-08-24T03:34:35.917Z,0.50
2022-08-24T03:39:37.801Z,0.70
2022-08-24T03:44:39.906Z,0.47
2022-08-24T03:49:41.790Z,0.68
2022-08-24T03:54:43.716Z,0.52
2022-08-24T03:59:46.814Z,0.40
2022-08-24T04:04:49.395Z,0.47
2022-08-24T04:09:51.547Z,0.43
2022-08-24T04:14:56.143Z,0.55
2022-08-24T04:19:58.305Z,0.60
2022-08-24T04:25:00.318Z,0.60
2022-08-24T04:30:04.492Z,0.60
2022-08-24T04:35:06.969Z,0.40
2022-08-24T04:40:09.886Z,0.60
2022-08-24T04:45:12.720Z,0.40
2022-08-24T04:50:14.455Z,0.88
2022-08-24T04:55:18.232Z,0.50
2022-08-24T05:00:20.482Z,0.73
2022-08-24T05:05:22.362Z,0.43
2022-08-24T05:10:24.611Z,0.43
2022-08-24T05:15:29.385Z,0.68
2022-08-24T05:20:31.474Z,0.55
2022-08-24T05:25:33.472Z,0.80
2022-08-24T05:30:38.305Z,0.30
2022-08-24T05:35:44.658Z,0.50
2022-08-24T05:40:46.919Z,0.80
2022-08-24T05:45:48.828Z,0.70
2022-08-24T05:50:56.603Z,0.70
2022-08-24T05:55:58.439Z,0.65
2022-08-24T06:01:11.386Z,0.70
2022-08-24T06:06:15.146Z,0.70
2022-08-24T06:11:43.425Z,0.90
2022-08-24T06:16:47.549Z,0.80
2022-08-24T06:21:51.910Z,0.98
2022-08-24T06:27:12.087Z,0.70
2022-08-24T06:32:14.203Z,1.50
2022-08-24T06:37:16.690Z,1.27
2022-08-24T06:42:19.279Z,1.92
2022-08-24T06:47:22.329Z,2.40
2022-08-24T06:52:24.279Z,1.35
2022-08-24T06:57:26.261Z,1.30
2022-08-24T07:02:28.070Z,1.42
2022-08-24T07:07:29.945Z,1.42
2022-08-24T07:12:31.755Z,1.58
2022-08-24T07:17:33.593Z,2.28
2022-08-24T07:22:35.309Z,2.08
2022-08-24T07:27:37.174Z,1.88
2022-08-24T07:32:39.581Z,2.75
2022-08-24T07:37:41.796Z,2.00
2022-08-24T07:42:47.532Z,1.83
2022-08-24T07:47:55.493Z,2.08
2022-08-24T07:52:57.885Z,2.00
2022-08-24T07:58:00.472Z,1.90
2022-08-24T08:03:03.534Z,1.33
2022-08-24T08:08:05.852Z,1.35
2022-08-24T08:13:08.483Z,1.30
2022-08-24T08:18:12.247Z,1.50
2022-08-24T08:23:36.998Z,1.38
2022-08-24T08:28:39.258Z,1.33
2022-08-24T08:33:42.071Z,1.42
2022-08-24T08:38:44.603Z,1.55
2022-08-24T08:44:01.261Z,1.42
2022-08-24T08:49:17.198Z,1.17
2022-08-24T08:54:34.044Z,1.65
2022-08-24T08:59:41.660Z,1.30
2022-08-24T09:05:04.957Z,1.63
2022-08-24T09:10:18.503Z,1.50
2022-08-24T09:15:29.369Z,1.40
2022-08-24T09:20:49.927Z,1.33
2022-08-24T09:26:09.691Z,1.27
2022-08-24T09:31:51.816Z,1.52
2022-08-24T09:37:01.925Z,1.45
2022-08-24T09:42:18.912Z,1.30
2022-08-24T09:47:24.029Z,1.38
2022-08-24T09:52:45.017Z,1.38
2022-08-24T09:58:04.949Z,1.48
2022-08-24T10:03:42.325Z,1.30
2022-08-24T10:09:00.094Z,1.52
2022-08-24T10:14:16.455Z,1.30
2022-08-24T10:19:39.745Z,1.20
2022-08-24T10:25:10.235Z,0.93
2022-08-24T10:30:55.644Z,1.60
2022-08-24T10:36:24.618Z,1.10
2022-08-24T10:41:41.919Z,0.95
2022-08-24T10:46:58.955Z,1.13
2022-08-24T10:52:25.879Z,1.40
2022-08-24T10:57:39.547Z,2.53
2022-08-24T11:02:45.897Z,1.10
2022-08-24T11:07:58.633Z,1.15
2022-08-24T11:13:22.394Z,1.65
2022-08-24T11:18:25.234Z,1.45
2022-08-24T11:23:36.858Z,1.38
2022-08-24T11:28:52.132Z,1.17
2022-08-24T11:34:00.685Z,1.25
2022-08-24T11:39:22.601Z,0.90
2022-08-24T11:44:42.638Z,1.15
2022-08-24T11:50:06.924Z,1.02
2022-08-24T11:55:26.319Z,1.15
2022-08-24T12:00:54.840Z,1.65
2022-08-24T12:06:04.023Z,0.70
2022-08-24T12:11:27.427Z,1.30
2022-08-24T12:16:38.449Z,0.80
2022-08-24T12:21:45.537Z,1.10
2022-08-24T12:27:07.854Z,1.08
2022-08-24T12:32:24.202Z,0.75
2022-08-24T12:37:35.095Z,0.82
2022-08-24T12:42:52.247Z,0.90
2022-08-24T12:48:27.411Z,0.70
2022-08-24T12:53:50.605Z,0.85
2022-08-24T12:59:25.021Z,0.90
2022-08-24T13:04:34.797Z,0.80
2022-08-24T13:09:44.239Z,0.80
2022-08-24T13:14:51.600Z,0.68
2022-08-24T13:20:27.043Z,1.17
2022-08-24T13:25:53.269Z,0.77
2022-08-24T13:31:14.734Z,0.65
2022-08-24T13:36:31.843Z,0.60
2022-08-24T13:42:07.799Z,0.57
2022-08-24T13:47:47.047Z,0.95
2022-08-24T13:53:04.318Z,0.90
2022-08-24T13:58:43.510Z,0.60
2022-08-24T14:03:51.989Z,0.60
2022-08-24T14:09:18.353Z,0.95
2022-08-24T14:14:51.521Z,0.52
2022-08-24T14:20:09.239Z,0.75
2022-08-24T14:25:23.564Z,0.60
2022-08-24T14:30:25.399Z,0.77
2022-08-24T14:35:39.993Z,0.60
2022-08-24T14:41:09.521Z,0.57
2022-08-24T14:46:34.179Z,0.68
2022-08-24T14:52:00.428Z,0.80
2022-08-24T14:57:28.195Z,0.60
2022-08-24T15:02:49.081Z,0.73
2022-08-24T15:08:34.969Z,0.75
2022-08-24T15:13:56.648Z,0.65
2022-08-24T15:19:27.207Z,0.50
2022-08-24T15:24:52.814Z,0.50
2022-08-24T15:29:58.463Z,0.70
2022-08-24T15:35:00.462Z,0.73
2022-08-24T15:40:06.184Z,0.80
2022-08-24T15:45:10.620Z,0.52
2022-08-24T15:50:26.545Z,0.52
2022-08-24T15:55:41.671Z,0.52
2022-08-24T16:01:02.399Z,0.60
2022-08-24T16:06:21.119Z,0.80
2022-08-24T16:11:30.345Z,0.60
2022-08-24T16:16:39.481Z,0.50
2022-08-24T16:22:01.506Z,0.65
2022-08-24T16:27:13.794Z,0.50
2022-08-24T16:32:22.987Z,0.60
2022-08-24T16:37:42.007Z,0.70
2022-08-24T16:42:43.943Z,0.80
2022-08-24T16:47:47.255Z,1.02
2022-08-24T16:52:49.655Z,1.08
2022-08-24T16:57:51.442Z,0.93
2022-08-24T17:02:53.529Z,1.17
2022-08-24T17:07:55.903Z,1.20
2022-08-24T17:12:58.752Z,1.15
2022-08-24T17:18:03.520Z,1.38
2022-08-24T17:23:06.074Z,1.15
2022-08-24T17:28:12.924Z,1.05
2022-08-24T17:33:15.031Z,1.50
2022-08-24T17:38:17.369Z,1.08
2022-08-24T17:43:19.342Z,1.30
2022-08-24T17:48:26.076Z,1.65
2022-08-24T17:53:28.065Z,1.60
2022-08-24T17:58:53.370Z,1.67
2022-08-24T18:03:55.291Z,1.70
2022-08-24T18:09:03.054Z,1.30
2022-08-24T18:14:05.000Z,1.15
2022-08-24T18:19:07.424Z,1.30
2022-08-24T18:24:09.402Z,1.20
2022-08-24T18:29:22.035Z,1.48
2022-08-24T18:34:24.556Z,1.60
2022-08-24T18:39:26.456Z,1.20
2022-08-24T18:44:31.748Z,1.50
2022-08-24T18:49:35.766Z,1.50
2022-08-24T18:54:41.591Z,1.30
2022-08-24T18:59:43.527Z,1.20
2022-08-24T19:04:47.976Z,1.40
2022-08-24T19:09:51.368Z,1.42
2022-08-24T19:14:57.571Z,1.30
2022-08-24T19:19:59.881Z,1.42
2022-08-24T19:25:03.883Z,1.33
2022-08-24T19:30:06.321Z,1.52
2022-08-24T19:35:10.224Z,1.90
2022-08-24T19:40:12.306Z,1.00
2022-08-24T19:45:35.253Z,1.42
2022-08-24T19:50:38.787Z,1.95
2022-08-24T19:55:40.811Z,1.80
2022-08-24T20:00:48.331Z,1.73
2022-08-24T20:05:54.019Z,1.83
2022-08-24T20:10:59.192Z,1.63
2022-08-24T20:16:01.838Z,1.42
2022-08-24T20:21:04.136Z,1.60
2022-08-24T20:26:08.317Z,1.77
2022-08-24T20:31:10.639Z,1.85
2022-08-24T20:36:23.454Z,1.17
2022-08-24T20:41:27.675Z,1.42
2022-08-24T20:46:30.821Z,1.23
2022-08-24T20:51:32.914Z,1.63
2022-08-24T20:56:39.403Z,1.38
2022-08-24T21:01:43.172Z,1.42
2022-08-24T21:06:47.905Z,1.30
2022-08-24T21:11:52.681Z,1.63
2022-08-24T21:16:57.701Z,1.10
2022-08-24T21:21:59.699Z,1.20
2022-08-24T21:27:01.744Z,1.40
2022-08-24T21:32:23.211Z,1.48
2022-08-24T21:37:25.338Z,1.33
2022-08-24T21:42:27.494Z,1.10
2022-08-24T21:47:29.498Z,1.10
2022-08-24T21:52:31.345Z,1.30
2022-08-24T21:57:33.315Z,1.50
2022-08-24T22:02:35.323Z,1.02
2022-08-24T22:07:37.438Z,1.55
2022-08-24T22:12:41.775Z,1.27
2022-08-24T22:17:45.053Z,1.45
2022-08-24T22:22:47.466Z,1.25
2022-08-24T22:27:49.271Z,1.00
2022-08-24T22:32:51.215Z,1.35
2022-08-24T22:37:53.039Z,1.00
2022-08-24T22:42:55.071Z,1.05
2022-08-24T22:47:57.073Z,1.65
2022-08-24T22:52:59.355Z,1.27
2022-08-24T22:58:02.086Z,1.10
2022-08-24T23:03:04.415Z,1.30
2022-08-24T23:08:06.432Z,1.13
2022-08-24T23:13:08.505Z,1.60
2022-08-24T23:18:30.486Z,1.27
2022-08-24T23:23:32.388Z,1.48
2022-08-24T23:28:34.593Z,1.50
2022-08-24T23:33:38.191Z,1.40
2022-08-24T23:38:41.928Z,1.05
2022-08-24T23:43:44.200Z,1.52
2022-08-24T23:48:55.134Z,1.10
2022-08-24T23:54:01.860Z,1.33
2022-08-24T23:59:14.091Z,1.30
